createdAt,value
2024-05-09T00:00:40.590Z,0.00
2024-05-09T00:01:39.281Z,0.00
2024-05-09T00:02:39.674Z,0.00
2024-05-09T00:03:40.025Z,0.00
2024-05-09T00:04:40.325Z,0.00
2024-05-09T00:05:41.070Z,0.00
2024-05-09T00:06:41.053Z,0.00
2024-05-09T00:07:41.420Z,0.00
2024-05-09T00:08:41.811Z,0.00
2024-05-09T00:09:42.137Z,0.00
2024-05-09T00:10:42.523Z,0.00
2024-05-09T00:11:42.886Z,0.00
2024-05-09T00:12:43.193Z,0.00
2024-05-09T00:13:43.573Z,0.00
2024-05-09T00:14:43.922Z,0.00
2024-05-09T00:15:44.302Z,0.00
2024-05-09T00:16:44.666Z,0.00
2024-05-09T00:17:45.208Z,0.00
2024-05-09T00:18:45.438Z,0.00
2024-05-09T00:19:45.752Z,0.00
2024-05-09T00:20:46.100Z,0.00
2024-05-09T00:21:46.428Z,0.00
2024-05-09T00:22:46.812Z,0.00
2024-05-09T00:23:47.203Z,0.00
2024-05-09T00:24:47.487Z,0.00
2024-05-09T00:25:47.941Z,0.00
2024-05-09T00:26:48.203Z,0.00
2024-05-09T00:27:48.595Z,0.00
2024-05-09T00:28:49.022Z,0.00
2024-05-09T00:29:49.262Z,0.00
2024-05-09T00:30:49.649Z,0.00
2024-05-09T00:31:50.088Z,0.00
2024-05-09T00:32:50.473Z,0.00
2024-05-09T00:33:51.046Z,0.00
2024-05-09T00:34:51.082Z,0.00
2024-05-09T00:35:51.462Z,0.00
2024-05-09T00:36:51.799Z,0.00
2024-05-09T00:37:52.165Z,0.00
2024-05-09T00:38:52.594Z,0.00
2024-05-09T00:39:52.908Z,0.00
2024-05-09T00:40:53.303Z,0.00
2024-05-09T00:41:53.623Z,0.00
2024-05-09T00:42:53.992Z,0.00
2024-05-09T00:43:54.382Z,0.00
2024-05-09T00:44:54.704Z,0.00
2024-05-09T00:45:55.090Z,0.00
2024-05-09T00:46:55.481Z,0.00
2024-05-09T00:47:55.881Z,0.00
2024-05-09T00:48:56.268Z,0.00
2024-05-09T00:49:56.534Z,0.00
2024-05-09T00:50:56.930Z,0.00
2024-05-09T00:51:57.203Z,0.00
2024-05-09T00:52:57.578Z,0.00
2024-05-09T00:53:57.918Z,0.00
2024-05-09T00:54:58.282Z,0.00
2024-05-09T00:55:58.719Z,0.00
2024-05-09T00:56:58.987Z,0.00
2024-05-09T00:57:59.363Z,0.00
2024-05-09T00:58:59.738Z,0.00
2024-05-09T01:00:00.090Z,0.00
2024-05-09T01:01:00.494Z,0.00
2024-05-09T01:02:00.887Z,0.00
2024-05-09T01:03:01.355Z,0.00
2024-05-09T01:04:01.631Z,0.00
2024-05-09T01:05:01.974Z,0.00
2024-05-09T01:06:02.283Z,0.00
2024-05-09T01:07:02.573Z,0.00
2024-05-09T01:08:03.323Z,0.00
2024-05-09T01:09:03.269Z,0.00
2024-05-09T01:10:05.511Z,0.00
2024-05-09T01:11:04.200Z,0.00
2024-05-09T01:12:04.432Z,0.00
2024-05-09T01:13:04.946Z,0.00
2024-05-09T01:14:05.122Z,0.00
2024-05-09T01:15:05.426Z,0.00
2024-05-09T01:16:05.806Z,0.00
2024-05-09T01:17:06.195Z,0.00
2024-05-09T01:18:06.771Z,0.00
2024-05-09T01:19:06.991Z,0.00
2024-05-09T01:20:10.663Z,0.00
2024-05-09T01:21:07.672Z,0.00
2024-05-09T01:22:07.975Z,0.00
2024-05-09T01:23:08.450Z,0.00
2024-05-09T01:24:08.701Z,0.00
2024-05-09T01:25:09.078Z,0.00
2024-05-09T01:26:09.458Z,0.00
2024-05-09T01:27:09.771Z,0.00
2024-05-09T01:28:10.115Z,0.00
2024-05-09T01:29:10.488Z,0.00
2024-05-09T01:30:17.177Z,0.00
2024-05-09T01:31:11.190Z,0.00
2024-05-09T01:32:11.603Z,0.00
2024-05-09T01:33:12.833Z,0.00
2024-05-09T01:34:12.279Z,0.00
2024-05-09T01:35:12.616Z,0.00
2024-05-09T01:36:12.970Z,0.00
2024-05-09T01:37:13.334Z,0.00
2024-05-09T01:38:14.229Z,0.00
2024-05-09T01:39:14.036Z,0.00
2024-05-09T01:40:18.628Z,0.00
2024-05-09T01:41:14.817Z,0.00
2024-05-09T01:42:15.118Z,0.00
2024-05-09T01:43:15.491Z,0.00
2024-05-09T01:44:15.925Z,0.00
2024-05-09T01:45:16.177Z,0.00
2024-05-09T01:46:16.573Z,0.00
2024-05-09T01:47:17.068Z,0.00
2024-05-09T01:48:17.476Z,0.00
2024-05-09T01:49:17.826Z,0.00
2024-05-09T01:50:22.519Z,0.00
2024-05-09T01:51:18.398Z,0.00
2024-05-09T01:52:18.713Z,0.00
2024-05-09T01:53:19.140Z,0.00
2024-05-09T01:54:19.416Z,0.00
2024-05-09T01:55:19.763Z,0.00
2024-05-09T01:56:20.230Z,0.00
2024-05-09T01:57:20.491Z,0.00
2024-05-09T01:58:20.871Z,0.00
2024-05-09T01:59:21.358Z,0.00
2024-05-09T02:00:30.278Z,0.00
2024-05-09T02:01:21.993Z,0.00
2024-05-09T02:02:22.362Z,0.00
2024-05-09T02:03:22.925Z,0.00
2024-05-09T02:04:23.134Z,0.00
2024-05-09T02:05:23.471Z,0.00
2024-05-09T02:06:23.710Z,0.00
2024-05-09T02:07:24.038Z,0.00
2024-05-09T02:08:24.439Z,0.00
2024-05-09T02:09:24.714Z,0.00
2024-05-09T02:10:31.775Z,0.00
2024-05-09T02:11:25.505Z,0.00
2024-05-09T02:12:25.875Z,0.00
2024-05-09T02:13:26.117Z,0.00
2024-05-09T02:14:26.635Z,0.00
2024-05-09T02:15:26.858Z,0.00
2024-05-09T02:16:27.177Z,0.00
2024-05-09T02:17:27.704Z,0.00
2024-05-09T02:18:28.006Z,0.00
2024-05-09T02:19:28.375Z,0.00
2024-05-09T02:20:34.213Z,0.00
2024-05-09T02:21:28.941Z,0.00
2024-05-09T02:22:29.237Z,0.00
2024-05-09T02:23:29.638Z,0.00
2024-05-09T02:24:29.958Z,0.00
2024-05-09T02:25:30.312Z,0.00
2024-05-09T02:26:30.745Z,0.00
2024-05-09T02:27:31.009Z,0.00
2024-05-09T02:28:31.349Z,0.00
2024-05-09T02:29:31.759Z,0.00
2024-05-09T02:30:39.177Z,0.00
2024-05-09T02:31:32.442Z,0.00
2024-05-09T02:32:33.815Z,0.00
2024-05-09T02:33:33.507Z,0.00
2024-05-09T02:34:33.581Z,0.00
2024-05-09T02:35:34.045Z,0.00
2024-05-09T02:36:34.216Z,0.00
2024-05-09T02:37:34.522Z,0.00
2024-05-09T02:38:34.883Z,0.00
2024-05-09T02:39:35.225Z,0.00
2024-05-09T02:40:38.295Z,0.00
2024-05-09T02:41:35.982Z,0.00
2024-05-09T02:42:36.270Z,0.00
2024-05-09T02:43:36.642Z,0.00
2024-05-09T02:44:37.057Z,0.00
2024-05-09T02:45:37.428Z,0.00
2024-05-09T02:46:37.776Z,0.00
2024-05-09T02:47:38.285Z,0.00
2024-05-09T02:48:38.550Z,0.00
2024-05-09T02:49:38.968Z,1.00
2024-05-09T02:50:40.155Z,1.00
2024-05-09T02:51:39.322Z,1.00
2024-05-09T02:52:39.579Z,1.00
2024-05-09T02:53:40.069Z,2.00
2024-05-09T02:54:40.131Z,2.00
2024-05-09T02:55:40.409Z,3.00
2024-05-09T02:56:40.756Z,2.00
2024-05-09T02:57:40.880Z,3.00
2024-05-09T02:58:41.164Z,4.00
2024-05-09T02:59:41.449Z,5.00
2024-05-09T03:00:42.995Z,6.00
2024-05-09T03:01:42.171Z,7.00
2024-05-09T03:02:42.495Z,5.00
2024-05-09T03:03:42.848Z,8.00
2024-05-09T03:04:42.960Z,10.00
2024-05-09T03:05:43.565Z,12.00
2024-05-09T03:06:43.360Z,13.00
2024-05-09T03:07:43.693Z,13.00
2024-05-09T03:08:43.992Z,17.00
2024-05-09T03:09:44.206Z,19.00
2024-05-09T03:10:44.536Z,22.00
2024-05-09T03:11:44.899Z,25.00
2024-05-09T03:12:45.134Z,27.00
2024-05-09T03:13:45.360Z,32.00
2024-05-09T03:14:45.597Z,37.00
2024-05-09T03:15:45.916Z,40.00
2024-05-09T03:16:46.140Z,45.00
2024-05-09T03:17:46.556Z,51.00
2024-05-09T03:18:46.637Z,57.00
2024-05-09T03:19:46.912Z,63.00
2024-05-09T03:20:47.201Z,71.00
2024-05-09T03:21:47.496Z,75.00
2024-05-09T03:22:47.785Z,85.00
2024-05-09T03:23:48.013Z,89.00
2024-05-09T03:24:48.213Z,101.00
2024-05-09T03:25:48.604Z,115.00
2024-05-09T03:26:48.682Z,119.00
2024-05-09T03:27:48.971Z,139.00
2024-05-09T03:28:49.325Z,150.00
2024-05-09T03:29:49.434Z,161.00
2024-05-09T03:30:49.594Z,172.00
2024-05-09T03:31:49.900Z,189.00
2024-05-09T03:32:50.208Z,206.00
2024-05-09T03:33:50.426Z,212.00
2024-05-09T03:34:50.491Z,238.00
2024-05-09T03:35:50.579Z,254.00
2024-05-09T03:36:50.750Z,268.00
2024-05-09T03:37:51.018Z,282.00
2024-05-09T03:38:51.221Z,302.00
2024-05-09T03:39:51.379Z,316.00
2024-05-09T03:40:51.812Z,346.00
2024-05-09T03:41:51.848Z,365.00
2024-05-09T03:42:52.122Z,387.00
2024-05-09T03:43:52.339Z,407.00
2024-05-09T03:44:52.479Z,431.00
2024-05-09T03:45:52.677Z,458.00
2024-05-09T03:46:52.822Z,483.00
2024-05-09T03:47:53.263Z,507.00
2024-05-09T03:48:53.274Z,532.00
2024-05-09T03:49:53.387Z,564.00
2024-05-09T03:50:53.608Z,586.00
2024-05-09T03:51:53.694Z,613.00
2024-05-09T03:52:53.882Z,643.00
2024-05-09T03:53:54.045Z,665.00
2024-05-09T03:54:54.200Z,701.00
2024-05-09T03:55:54.434Z,724.00
2024-05-09T03:56:54.567Z,754.00
2024-05-09T03:57:54.708Z,780.00
2024-05-09T03:58:54.946Z,811.00
2024-05-09T03:59:55.058Z,834.00
2024-05-09T04:00:55.285Z,873.00
2024-05-09T04:01:55.507Z,901.00
2024-05-09T04:02:55.707Z,926.00
2024-05-09T04:03:55.940Z,964.00
2024-05-09T04:04:56.096Z,991.00
2024-05-09T04:05:56.262Z,1019.00
2024-05-09T04:06:56.464Z,1049.00
2024-05-09T04:07:56.613Z,1085.00
2024-05-09T04:08:56.750Z,1114.00
2024-05-09T04:09:56.944Z,1145.00
2024-05-09T04:10:57.171Z,1170.00
2024-05-09T04:11:57.438Z,1201.00
2024-05-09T04:12:57.566Z,1234.00
2024-05-09T04:13:57.772Z,1255.00
2024-05-09T04:14:57.910Z,1306.00
2024-05-09T04:15:58.129Z,1355.00
2024-05-09T04:16:58.394Z,1398.00
2024-05-09T04:17:58.815Z,1434.00
2024-05-09T04:18:58.901Z,1477.00
2024-05-09T04:19:58.991Z,1511.00
2024-05-09T04:20:59.222Z,1551.00
2024-05-09T04:21:59.313Z,1584.00
2024-05-09T04:22:59.521Z,1612.00
2024-05-09T04:23:59.692Z,1663.00
2024-05-09T04:24:59.950Z,1701.00
2024-05-09T04:26:00.366Z,1746.00
2024-05-09T04:27:00.442Z,1790.00
2024-05-09T04:28:00.667Z,1842.00
2024-05-09T04:29:00.835Z,1895.00
2024-05-09T04:30:01.040Z,1936.00
2024-05-09T04:31:01.225Z,1971.00
2024-05-09T04:32:01.473Z,1999.00
2024-05-09T04:33:01.767Z,2029.00
2024-05-09T04:34:01.919Z,2073.00
2024-05-09T04:35:01.966Z,2123.00
2024-05-09T04:36:02.121Z,2179.00
2024-05-09T04:37:02.283Z,2245.00
2024-05-09T04:38:02.582Z,2305.00
2024-05-09T04:39:02.685Z,2326.00
2024-05-09T04:40:03.116Z,2336.00
2024-05-09T04:41:03.148Z,2351.00
2024-05-09T04:42:03.229Z,2365.00
2024-05-09T04:43:03.383Z,2383.00
2024-05-09T04:44:03.609Z,2394.00
2024-05-09T04:45:03.772Z,2411.00
2024-05-09T04:46:03.984Z,2450.00
2024-05-09T04:47:04.186Z,2468.00
2024-05-09T04:48:04.599Z,2501.00
2024-05-09T04:49:04.560Z,2515.00
2024-05-09T04:50:05.650Z,2545.00
2024-05-09T04:51:05.055Z,2625.00
2024-05-09T04:52:05.044Z,2697.00
2024-05-09T04:53:05.938Z,2737.00
2024-05-09T04:54:05.635Z,2757.00
2024-05-09T04:55:05.614Z,2763.00
2024-05-09T04:56:05.873Z,2771.00
2024-05-09T04:57:06.068Z,2791.00
2024-05-09T04:58:06.196Z,2812.00
2024-05-09T04:59:06.390Z,2816.00
2024-05-09T05:00:11.554Z,2840.00
2024-05-09T05:01:06.773Z,2880.00
2024-05-09T05:02:07.001Z,2923.00
2024-05-09T05:03:08.344Z,2950.00
2024-05-09T05:04:07.387Z,2980.00
2024-05-09T05:05:07.610Z,3035.00
2024-05-09T05:06:07.717Z,3083.00
2024-05-09T05:07:07.843Z,3142.00
2024-05-09T05:08:08.060Z,3209.00
2024-05-09T05:09:08.182Z,3298.00
2024-05-09T05:10:11.864Z,3403.00
2024-05-09T05:11:08.765Z,3463.00
2024-05-09T05:12:08.888Z,3517.00
2024-05-09T05:13:08.893Z,3544.00
2024-05-09T05:14:09.105Z,3589.00
2024-05-09T05:15:09.275Z,3659.00
2024-05-09T05:16:09.490Z,3652.00
2024-05-09T05:17:09.686Z,3654.00
2024-05-09T05:18:10.008Z,3667.00
2024-05-09T05:19:13.423Z,3676.00
2024-05-09T05:20:15.058Z,3653.00
2024-05-09T05:21:10.398Z,3598.00
2024-05-09T05:22:10.573Z,3572.00
2024-05-09T05:23:10.767Z,3554.00
2024-05-09T05:24:10.953Z,3508.00
2024-05-09T05:25:11.095Z,3392.00
2024-05-09T05:26:11.367Z,3356.00
2024-05-09T05:27:11.453Z,3373.00
2024-05-09T05:28:11.669Z,3402.00
2024-05-09T05:29:11.897Z,3480.00
2024-05-09T05:30:17.861Z,3535.00
2024-05-09T05:31:12.275Z,3598.00
2024-05-09T05:32:12.482Z,3681.00
2024-05-09T05:33:12.867Z,3724.00
2024-05-09T05:34:12.811Z,3789.00
2024-05-09T05:35:12.958Z,3851.00
2024-05-09T05:36:13.138Z,3886.00
2024-05-09T05:37:13.421Z,3957.00
2024-05-09T05:38:13.625Z,4061.00
2024-05-09T05:39:13.701Z,4184.00
2024-05-09T05:40:24.614Z,4296.00
2024-05-09T05:41:14.086Z,4386.00
2024-05-09T05:42:14.221Z,4467.00
2024-05-09T05:43:14.405Z,4594.00
2024-05-09T05:44:14.607Z,4717.00
2024-05-09T05:45:14.748Z,4772.00
2024-05-09T05:46:14.949Z,4782.00
2024-05-09T05:47:15.228Z,4717.00
2024-05-09T05:48:15.588Z,4613.00
2024-05-09T05:49:15.558Z,4476.00
2024-05-09T05:50:24.351Z,4373.00
2024-05-09T05:51:16.050Z,4297.00
2024-05-09T05:52:16.026Z,4235.00
2024-05-09T05:53:16.306Z,4210.00
2024-05-09T05:54:16.407Z,4204.00
2024-05-09T05:55:16.547Z,4218.00
2024-05-09T05:56:16.760Z,4263.00
2024-05-09T05:57:16.924Z,4324.00
2024-05-09T05:58:17.123Z,4400.00
2024-05-09T05:59:17.396Z,4468.00
2024-05-09T06:00:28.509Z,4535.00
2024-05-09T06:01:17.732Z,4569.00
2024-05-09T06:02:18.050Z,4612.00
2024-05-09T06:03:18.148Z,4667.00
2024-05-09T06:04:18.299Z,4696.00
2024-05-09T06:05:18.519Z,4774.00
2024-05-09T06:06:18.588Z,4859.00
2024-05-09T06:07:18.767Z,4985.00
2024-05-09T06:08:19.019Z,5089.00
2024-05-09T06:09:19.178Z,5143.00
2024-05-09T06:10:25.412Z,5157.00
2024-05-09T06:11:19.570Z,5146.00
2024-05-09T06:12:19.763Z,5076.00
2024-05-09T06:13:19.828Z,4941.00
2024-05-09T06:14:20.086Z,4842.00
2024-05-09T06:15:20.210Z,4679.00
2024-05-09T06:16:20.414Z,4550.00
2024-05-09T06:17:20.722Z,4494.00
2024-05-09T06:18:21.085Z,4487.00
2024-05-09T06:19:21.195Z,4484.00
2024-05-09T06:20:27.745Z,4436.00
2024-05-09T06:21:21.413Z,4376.00
2024-05-09T06:22:21.530Z,4292.00
2024-05-09T06:23:21.770Z,4210.00
2024-05-09T06:24:21.988Z,4127.00
2024-05-09T06:25:22.113Z,4065.00
2024-05-09T06:26:22.347Z,4005.00
2024-05-09T06:27:22.463Z,3929.00
2024-05-09T06:28:22.651Z,3888.00
2024-05-09T06:29:22.885Z,3889.00
2024-05-09T06:30:30.343Z,3893.00
2024-05-09T06:31:23.181Z,3892.00
2024-05-09T06:32:23.536Z,3855.00
2024-05-09T06:33:23.653Z,3834.00
2024-05-09T06:34:23.882Z,3867.00
2024-05-09T06:35:23.968Z,3833.00
2024-05-09T06:36:24.124Z,3913.00
2024-05-09T06:37:24.319Z,4063.00
2024-05-09T06:38:24.572Z,4259.00
2024-05-09T06:39:24.687Z,4461.00
2024-05-09T06:40:29.472Z,4551.00
2024-05-09T06:41:25.077Z,4536.00
2024-05-09T06:42:25.214Z,4542.00
2024-05-09T06:43:25.405Z,4475.00
2024-05-09T06:44:25.696Z,4421.00
2024-05-09T06:45:25.783Z,4446.00
2024-05-09T06:46:25.964Z,4533.00
2024-05-09T06:47:26.348Z,4629.00
2024-05-09T06:48:26.470Z,4814.00
2024-05-09T06:49:26.658Z,4874.00
2024-05-09T06:50:31.088Z,4870.00
2024-05-09T06:51:26.879Z,4631.00
2024-05-09T06:52:27.075Z,4573.00
2024-05-09T06:53:27.318Z,4627.00
2024-05-09T06:54:27.459Z,4738.00
2024-05-09T06:55:27.633Z,4845.00
2024-05-09T06:56:27.829Z,4957.00
2024-05-09T06:57:27.980Z,5145.00
2024-05-09T06:58:28.150Z,5362.00
2024-05-09T06:59:28.547Z,5587.00
2024-05-09T07:00:35.741Z,5824.00
2024-05-09T07:01:28.755Z,6103.00
2024-05-09T07:02:28.961Z,6332.00
2024-05-09T07:03:29.202Z,6579.00
2024-05-09T07:04:29.338Z,6664.00
2024-05-09T07:05:29.436Z,6696.00
2024-05-09T07:06:29.537Z,6549.00
2024-05-09T07:07:29.733Z,6452.00
2024-05-09T07:08:29.945Z,6320.00
2024-05-09T07:09:30.130Z,6224.00
2024-05-09T07:10:34.862Z,6167.00
2024-05-09T07:11:30.516Z,6140.00
2024-05-09T07:12:30.718Z,6144.00
2024-05-09T07:13:30.809Z,6358.00
2024-05-09T07:14:31.947Z,6420.00
2024-05-09T07:15:31.230Z,6316.00
2024-05-09T07:16:31.399Z,6095.00
2024-05-09T07:17:31.930Z,5798.00
2024-05-09T07:18:31.938Z,5453.00
2024-05-09T07:19:32.069Z,4821.00
2024-05-09T07:20:34.840Z,4434.00
2024-05-09T07:21:32.314Z,4181.00
2024-05-09T07:22:32.493Z,4071.00
2024-05-09T07:23:32.856Z,4001.00
2024-05-09T07:24:32.917Z,3957.00
2024-05-09T07:25:33.080Z,3939.00
2024-05-09T07:26:33.348Z,3931.00
2024-05-09T07:27:33.435Z,3917.00
2024-05-09T07:28:33.620Z,3905.00
2024-05-09T07:29:36.141Z,3893.00
2024-05-09T07:30:35.024Z,3884.00
2024-05-09T07:31:34.143Z,3882.00
2024-05-09T07:32:34.434Z,3883.00
2024-05-09T07:33:34.584Z,3889.00
2024-05-09T07:34:35.059Z,3893.00
2024-05-09T07:35:35.029Z,3896.00
2024-05-09T07:36:35.054Z,3896.00
2024-05-09T07:37:35.240Z,3894.00
2024-05-09T07:38:35.631Z,3892.00
2024-05-09T07:39:35.667Z,3893.00
2024-05-09T07:40:37.024Z,3896.00
2024-05-09T07:41:36.155Z,3897.00
2024-05-09T07:42:36.146Z,3913.00
2024-05-09T07:43:36.325Z,3928.00
2024-05-09T07:44:36.599Z,3931.00
2024-05-09T07:45:48.400Z,3921.00
2024-05-09T07:47:47.283Z,3807.00
2024-05-09T07:50:53.231Z,3907.00
2024-05-09T07:53:32.536Z,3895.00
2024-05-09T07:53:49.308Z,3872.00
2024-05-09T07:54:00.444Z,3860.00
2024-05-09T07:54:56.662Z,3801.00
2024-05-09T07:55:56.968Z,3837.00
2024-05-09T07:56:56.772Z,3912.00
2024-05-09T07:57:56.820Z,3945.00
2024-05-09T07:58:57.016Z,3975.00
2024-05-09T07:59:58.199Z,4019.00
2024-05-09T08:00:57.500Z,4066.00
2024-05-09T08:01:58.006Z,4121.00
2024-05-09T08:02:57.755Z,4161.00
2024-05-09T08:03:58.339Z,4167.00
2024-05-09T08:04:58.210Z,4221.00
2024-05-09T08:05:58.285Z,4265.00
2024-05-09T08:06:58.515Z,4306.00
2024-05-09T08:07:58.644Z,4339.00
2024-05-09T08:09:00.872Z,4397.00
2024-05-09T08:09:59.068Z,4462.00
2024-05-09T08:10:59.204Z,4492.00
2024-05-09T08:11:59.438Z,4475.00
2024-05-09T08:12:59.645Z,4451.00
2024-05-09T08:13:59.775Z,4430.00
2024-05-09T08:15:00.011Z,4436.00
2024-05-09T08:16:00.535Z,4428.00
2024-05-09T08:17:00.387Z,4395.00
2024-05-09T08:18:00.888Z,4387.00
2024-05-09T08:19:00.800Z,4340.00
2024-05-09T08:20:03.002Z,4377.00
2024-05-09T08:21:01.085Z,4448.00
2024-05-09T08:22:01.350Z,4432.00
2024-05-09T08:23:01.455Z,4402.00
2024-05-09T08:24:01.644Z,4370.00
2024-05-09T08:25:01.864Z,4351.00
2024-05-09T08:26:02.026Z,4364.00
2024-05-09T08:27:02.183Z,4407.00
2024-05-09T08:28:02.410Z,4476.00
2024-05-09T08:29:02.547Z,4522.00
2024-05-09T08:30:03.135Z,4532.00
2024-05-09T08:31:06.629Z,4540.00
2024-05-09T08:32:03.200Z,4547.00
2024-05-09T08:33:03.328Z,4542.00
2024-05-09T08:34:03.629Z,4547.00
2024-05-09T08:35:03.697Z,4557.00
2024-05-09T08:36:03.824Z,4571.00
2024-05-09T08:37:12.866Z,4574.00
2024-05-09T08:38:04.639Z,4592.00
2024-05-09T08:39:04.375Z,4613.00
2024-05-09T08:40:06.537Z,4651.00
2024-05-09T08:41:04.779Z,4696.00
2024-05-09T08:42:04.917Z,4745.00
2024-05-09T08:43:05.168Z,4792.00
2024-05-09T08:44:05.268Z,4840.00
2024-05-09T08:45:05.477Z,4934.00
2024-05-09T08:46:05.663Z,5049.00
2024-05-09T08:47:05.852Z,5115.00
2024-05-09T08:48:06.486Z,5151.00
2024-05-09T08:49:06.466Z,5213.00
2024-05-09T08:50:08.647Z,5306.00
2024-05-09T08:51:06.549Z,5421.00
2024-05-09T08:52:06.794Z,5522.00
2024-05-09T08:53:06.904Z,5638.00
2024-05-09T08:54:07.099Z,5721.00
2024-05-09T08:55:07.432Z,5825.00
2024-05-09T08:56:07.475Z,5904.00
2024-05-09T08:57:07.646Z,5971.00
2024-05-09T08:58:07.963Z,6058.00
2024-05-09T08:59:08.026Z,6093.00
2024-05-09T09:00:12.661Z,6108.00
2024-05-09T09:01:08.487Z,6095.00
2024-05-09T09:02:08.758Z,6091.00
2024-05-09T09:03:08.939Z,6143.00
2024-05-09T09:04:09.082Z,6243.00
2024-05-09T09:05:09.347Z,6392.00
2024-05-09T09:06:09.323Z,6560.00
2024-05-09T09:07:09.545Z,6713.00
2024-05-09T09:08:09.639Z,6851.00
2024-05-09T09:09:09.816Z,7042.00
2024-05-09T09:10:13.029Z,7173.00
2024-05-09T09:11:10.198Z,8283.00
2024-05-09T09:12:10.757Z,10142.00
2024-05-09T09:13:10.682Z,10829.00
2024-05-09T09:14:10.770Z,10715.00
2024-05-09T09:15:10.998Z,11502.00
2024-05-09T09:16:11.256Z,12306.00
2024-05-09T09:17:11.372Z,11307.00
2024-05-09T09:18:12.340Z,11659.00
2024-05-09T09:19:11.853Z,12108.00
2024-05-09T09:20:16.462Z,12131.00
2024-05-09T09:21:12.090Z,11811.00
2024-05-09T09:22:12.382Z,11654.00
2024-05-09T09:23:12.441Z,10825.00
2024-05-09T09:24:12.641Z,12798.00
2024-05-09T09:25:12.916Z,13696.00
2024-05-09T09:26:13.028Z,12757.00
2024-05-09T09:27:13.228Z,12917.00
2024-05-09T09:28:13.647Z,13928.00
2024-05-09T09:29:13.606Z,14389.00
2024-05-09T09:30:27.677Z,14258.00
2024-05-09T09:31:14.009Z,14161.00
2024-05-09T09:32:14.157Z,14103.00
2024-05-09T09:33:14.449Z,14694.00
2024-05-09T09:34:14.728Z,14918.00
2024-05-09T09:35:14.716Z,15084.00
2024-05-09T09:36:14.925Z,15482.00
2024-05-09T09:37:15.150Z,15603.00
2024-05-09T09:38:15.275Z,16465.00
2024-05-09T09:39:15.454Z,15371.00
2024-05-09T09:40:18.316Z,16176.00
2024-05-09T09:41:15.933Z,16825.00
2024-05-09T09:42:16.044Z,17655.00
2024-05-09T09:43:16.294Z,19029.00
2024-05-09T09:44:16.447Z,18145.00
2024-05-09T09:45:16.663Z,17847.00
2024-05-09T09:46:16.982Z,18010.00
2024-05-09T09:47:17.066Z,16655.00
2024-05-09T09:48:17.396Z,16272.00
2024-05-09T09:49:17.536Z,16547.00
2024-05-09T09:50:24.034Z,17625.00
2024-05-09T09:51:17.848Z,20669.00
2024-05-09T09:52:18.090Z,20852.00
2024-05-09T09:53:18.235Z,19788.00
2024-05-09T09:54:18.417Z,21885.00
2024-05-09T09:55:18.742Z,18730.00
2024-05-09T09:56:18.830Z,18328.00
2024-05-09T09:57:18.989Z,17515.00
2024-05-09T09:58:19.249Z,17288.00
2024-05-09T09:59:19.431Z,16314.00
2024-05-09T10:00:24.640Z,17776.00
2024-05-09T10:01:19.994Z,19044.00
2024-05-09T10:02:20.166Z,17641.00
2024-05-09T10:03:20.319Z,19336.00
2024-05-09T10:04:20.563Z,24006.00
2024-05-09T10:05:20.763Z,75177.00
2024-05-09T10:06:20.805Z,83022.00
2024-05-09T10:07:21.053Z,81292.00
2024-05-09T10:08:21.231Z,82781.00
2024-05-09T10:09:21.459Z,83018.00
2024-05-09T10:10:29.869Z,82024.00
2024-05-09T10:11:21.883Z,83726.00
2024-05-09T10:12:22.100Z,78595.00
2024-05-09T10:13:22.347Z,77044.00
2024-05-09T10:14:22.436Z,77569.00
2024-05-09T10:15:22.676Z,80285.00
2024-05-09T10:16:23.114Z,80652.00
2024-05-09T10:17:23.092Z,27594.00
2024-05-09T10:18:23.459Z,80922.00
2024-05-09T10:19:23.556Z,80899.00
2024-05-09T10:20:28.157Z,77347.00
2024-05-09T10:21:23.882Z,75956.00
2024-05-09T10:22:24.121Z,76098.00
2024-05-09T10:23:24.308Z,76097.00
2024-05-09T10:24:24.508Z,76089.00
2024-05-09T10:25:24.919Z,76312.00
2024-05-09T10:26:24.923Z,76362.00
2024-05-09T10:27:25.131Z,77833.00
2024-05-09T10:28:25.359Z,81880.00
2024-05-09T10:29:25.590Z,81461.00
2024-05-09T10:30:33.461Z,81317.00
2024-05-09T10:31:26.017Z,76111.00
2024-05-09T10:32:26.352Z,75693.00
2024-05-09T10:33:26.458Z,75841.00
2024-05-09T10:34:26.782Z,76015.00
2024-05-09T10:35:26.894Z,76007.00
2024-05-09T10:36:27.050Z,75868.00
2024-05-09T10:37:27.203Z,75855.00
2024-05-09T10:38:27.377Z,75920.00
2024-05-09T10:39:27.615Z,75968.00
2024-05-09T10:40:31.376Z,81502.00
2024-05-09T10:41:27.952Z,82056.00
2024-05-09T10:42:28.172Z,81160.00
2024-05-09T10:43:28.377Z,82773.00
2024-05-09T10:44:28.552Z,81961.00
2024-05-09T10:45:28.821Z,83294.00
2024-05-09T10:46:29.005Z,81775.00
2024-05-09T10:47:29.161Z,77876.00
2024-05-09T10:48:29.449Z,80245.00
2024-05-09T10:49:29.564Z,82273.00
2024-05-09T10:50:34.072Z,80932.00
2024-05-09T10:51:29.953Z,80743.00
2024-05-09T10:52:30.098Z,80904.00
2024-05-09T10:53:30.306Z,82026.00
2024-05-09T10:54:30.566Z,82784.00
2024-05-09T10:55:30.792Z,83208.00
2024-05-09T10:56:30.950Z,81300.00
2024-05-09T10:57:31.110Z,80180.00
2024-05-09T10:58:31.314Z,80531.00
2024-05-09T10:59:31.516Z,82674.00
2024-05-09T11:00:35.806Z,79611.00
2024-05-09T11:01:32.052Z,80368.00
2024-05-09T11:02:32.357Z,78987.00
2024-05-09T11:03:32.538Z,80977.00
2024-05-09T11:04:32.554Z,83026.00
2024-05-09T11:05:32.907Z,79527.00
2024-05-09T11:06:32.963Z,82928.00
2024-05-09T11:07:33.170Z,81468.00
2024-05-09T11:08:33.279Z,83246.00
2024-05-09T11:09:33.507Z,80868.00
2024-05-09T11:10:34.582Z,83528.00
2024-05-09T11:11:33.978Z,33433.00
2024-05-09T11:12:34.133Z,82962.00
2024-05-09T11:13:34.346Z,79301.00
2024-05-09T11:14:34.528Z,14886.00
2024-05-09T11:15:34.751Z,13943.00
2024-05-09T11:16:34.885Z,12851.00
2024-05-09T11:17:35.106Z,11964.00
2024-05-09T11:18:38.778Z,12775.00
2024-05-09T11:19:35.534Z,15913.00
2024-05-09T11:20:35.912Z,18903.00
2024-05-09T11:21:35.892Z,23502.00
2024-05-09T11:22:36.083Z,76196.00
2024-05-09T11:23:36.278Z,81400.00
2024-05-09T11:24:36.497Z,79919.00
2024-05-09T11:25:36.727Z,77351.00
2024-05-09T11:26:36.874Z,28829.00
2024-05-09T11:27:37.143Z,79562.00
2024-05-09T11:28:37.272Z,80124.00
2024-05-09T11:29:37.474Z,74936.00
2024-05-09T11:30:37.781Z,77938.00
2024-05-09T11:31:38.005Z,79420.00
2024-05-09T11:32:38.216Z,79377.00
2024-05-09T11:33:38.606Z,79727.00
2024-05-09T11:34:38.492Z,83022.00
2024-05-09T11:35:38.738Z,81813.00
2024-05-09T11:36:38.980Z,80943.00
2024-05-09T11:37:39.143Z,26917.00
2024-05-09T11:38:39.327Z,18488.00
2024-05-09T11:39:39.564Z,19613.00
2024-05-09T11:40:39.885Z,30617.00
2024-05-09T11:41:39.920Z,29133.00
2024-05-09T11:42:40.295Z,28307.00
2024-05-09T11:43:40.322Z,25170.00
2024-05-09T11:44:40.528Z,18494.00
2024-05-09T11:45:40.820Z,17809.00
2024-05-09T11:46:40.936Z,13075.00
2024-05-09T11:47:41.250Z,13168.00
2024-05-09T11:48:41.606Z,14113.00
2024-05-09T11:49:41.565Z,15202.00
2024-05-09T11:50:41.888Z,15163.00
2024-05-09T11:51:42.002Z,14923.00
2024-05-09T11:52:42.147Z,14552.00
2024-05-09T11:53:42.344Z,14293.00
2024-05-09T11:54:42.633Z,14052.00
2024-05-09T11:55:42.730Z,13990.00
2024-05-09T11:56:42.923Z,14527.00
2024-05-09T11:57:43.148Z,14422.00
2024-05-09T11:58:43.312Z,13938.00
2024-05-09T11:59:43.511Z,13590.00
2024-05-09T12:00:43.938Z,13625.00
2024-05-09T12:01:43.976Z,14152.00
2024-05-09T12:02:44.085Z,15011.00
2024-05-09T12:03:44.506Z,17581.00
2024-05-09T12:04:44.795Z,19339.00
2024-05-09T12:05:44.921Z,22402.00
2024-05-09T12:06:44.940Z,15840.00
2024-05-09T12:07:45.091Z,15007.00
2024-05-09T12:08:45.305Z,19525.00
2024-05-09T12:09:45.566Z,21297.00
2024-05-09T12:10:46.050Z,17982.00
2024-05-09T12:11:45.922Z,25017.00
2024-05-09T12:12:46.127Z,25790.00
2024-05-09T12:13:46.300Z,26344.00
2024-05-09T12:14:46.505Z,15417.00
2024-05-09T12:15:46.770Z,14459.00
2024-05-09T12:16:47.007Z,13820.00
2024-05-09T12:17:49.598Z,13796.00
2024-05-09T12:18:47.405Z,14206.00
2024-05-09T12:19:47.478Z,13946.00
2024-05-09T12:20:47.666Z,13613.00
2024-05-09T12:21:47.877Z,13921.00
2024-05-09T12:22:48.009Z,17602.00
2024-05-09T12:23:48.222Z,23373.00
2024-05-09T12:24:48.447Z,25227.00
2024-05-09T12:25:48.690Z,18053.00